This is the latest recevied weather packets stored in our database for station/object E22ZMG-3. If no packets are shown the sender has not sent any weather packets the latest 1 day(s).
| Time | Temp. | Humidity | Pressure | Rain* | Wind** | Luminosity | Snow |
|---|---|---|---|---|---|---|---|
| 1836274518 | 33.33° C | 57% | 975 hPa | - | 0 m/s | 0 W/m² | - |
| 1836274392 | 33.33° C | 56% | 975 hPa | - | 0 m/s | 0 W/m² | - |
| 1836273893 | 32.78° C | 60% | 975 hPa | - | 0 m/s | 0 W/m² | - |
| 1778066606 | 39.44° C | 37% | 971 hPa | - | 0 m/s | 0 W/m² | - |
| 1778065984 | 40.56° C | 34% | 971 hPa | - | 0 m/s | 0 W/m² | - |
| 1778065981 | 40.56° C | 34% | 971 hPa | - | 0 m/s | 0 W/m² | - |
| 1778065356 | 40.56° C | 31% | 971 hPa | - | 0 m/s | 0 W/m² | - |
| 1778064731 | 41.11° C | 30% | 971 hPa | - | 0 m/s | 0 W/m² | - |
| 1778064107 | 41.67° C | 30% | 971 hPa | - | 0 m/s | 0 W/m² | - |
| 1778063482 | 41.67° C | 31% | 971 hPa | - | 0 m/s | 0 W/m² | - |
| 1778062857 | 41.11° C | 30% | 971 hPa | - | 0 m/s | 0 W/m² | - |
| 1778062232 | 40.56° C | 31% | 971 hPa | - | 0 m/s | 0 W/m² | - |
| 1778061608 | 40.56° C | 31% | 971 hPa | - | 0 m/s | 0 W/m² | - |
| 1778060983 | 40° C | 31% | 971 hPa | - | 0 m/s | 0 W/m² | - |
| 1778060359 | 40° C | 30% | 971 hPa | - | 0 m/s | 0 W/m² | - |
| 1778059735 | 39.44° C | 33% | 971 hPa | - | 0 m/s | 0 W/m² | - |
| 1778059110 | 38.33° C | 35% | 971 hPa | - | 0 m/s | 0 W/m² | - |
| 1778058485 | 38.33° C | 36% | 971 hPa | - | 0 m/s | 0 W/m² | - |
| 1778057861 | 37.22° C | 38% | 971 hPa | - | 0 m/s | 0 W/m² | - |
| 1778057236 | 38.33° C | 39% | 971 hPa | - | 0 m/s | 0 W/m² | - |
| 1778056612 | 37.22° C | 40% | 972 hPa | - | 0 m/s | 0 W/m² | - |
| 1778055987 | 38.33° C | 38% | 972 hPa | - | 0 m/s | 0 W/m² | - |
| 1778055362 | 38.89° C | 37% | 972 hPa | - | 0 m/s | 0 W/m² | - |
| 1778054737 | 39.44° C | 36% | 972 hPa | - | 0 m/s | 0 W/m² | - |
| 1778054112 | 41.11° C | 29% | 972 hPa | - | 0 m/s | 0 W/m² | - |
* Rain since midnight (hover to see other rain measurements)
** Current wind speed in m/s (hover to see current wind gust speed)